Time;durP1;ratioP1;P1;durP2;ratioP2;P2;SDS_P1;SDS_P2;PMS_P1;PMS_P2;Temp;Humidity;BMP_temperature;BMP_pressure;BME280_temperature;BME280_humidity;BME280_pressure;Samples;Min_cycle;Max_cycle;Signal;HPM_P1;HPM_P2
2022/09/10 00:00:43;;;;;;;;;;;21.00;44.80;;;;;;453013;263;2225;-51
2022/09/10 00:02:44;;;;;;;;;;;21.00;44.90;;;;;;452744;263;1343;-51
2022/09/10 00:04:46;;;;;;;;;;;21.00;44.90;;;;;;453079;263;1325;-51
2022/09/10 00:06:47;;;;;;;;;;;21.00;45.00;;;;;;452994;263;1319;-51
2022/09/10 00:08:48;;;;;;;;;;;21.00;45.00;;;;;;452639;263;1329;-51
2022/09/10 00:10:50;;;;;;;;;;;21.00;45.00;;;;;;453077;263;1282;-51
2022/09/10 00:12:51;;;;;;;;;;;21.00;45.00;;;;;;452848;263;1288;-52
2022/09/10 00:14:53;;;;;;;;;;;21.00;45.00;;;;;;453050;263;1222;-51
2022/09/10 00:16:54;;;;;;;;;;;21.00;45.10;;;;;;452685;263;1246;-51
2022/09/10 00:18:56;;;;;;;;;;;21.00;45.10;;;;;;453084;262;1367;-51
2022/09/10 00:20:58;;;;;;;;;;;21.00;45.10;;;;;;453028;263;2174;-51
2022/09/10 00:23:01;;;;;;;;;;;21.00;45.10;;;;;;452981;263;1315;-51
2022/09/10 00:25:00;;;;;;;;;;;21.00;45.10;;;;;;452804;263;2271;-52
2022/09/10 00:27:02;;;;;;;;;;;21.00;45.20;;;;;;453046;263;1301;-52
2022/09/10 00:29:03;;;;;;;;;;;21.00;45.10;;;;;;452682;263;1340;-51
2022/09/10 00:31:04;;;;;;;;;;;21.00;45.20;;;;;;453061;263;1316;-51
2022/09/10 00:33:06;;;;;;;;;;;21.00;45.20;;;;;;453014;263;1332;-51
2022/09/10 00:35:07;;;;;;;;;;;21.00;45.20;;;;;;453080;263;1206;-52
2022/09/10 00:37:08;;;;;;;;;;;21.00;45.30;;;;;;453075;263;1317;-52
2022/09/10 00:39:09;;;;;;;;;;;21.00;45.20;;;;;;452769;263;1514;-51
2022/09/10 00:41:11;;;;;;;;;;;21.00;45.30;;;;;;453072;263;2193;-52
2022/09/10 00:43:12;;;;;;;;;;;21.00;45.30;;;;;;452680;263;1308;-52
2022/09/10 00:45:13;;;;;;;;;;;21.00;45.30;;;;;;452680;263;1275;-52
2022/09/10 00:47:15;;;;;;;;;;;21.00;45.30;;;;;;452697;263;1375;-52
2022/09/10 00:49:16;;;;;;;;;;;21.00;45.30;;;;;;453009;263;1914;-52
2022/09/10 00:51:18;;;;;;;;;;;21.00;45.40;;;;;;452932;262;1369;-51
2022/09/10 00:53:20;;;;;;;;;;;21.00;45.40;;;;;;452490;263;1717;-52
2022/09/10 00:55:20;;;;;;;;;;;21.00;45.40;;;;;;452971;263;2049;-51
2022/09/10 00:57:21;;;;;;;;;;;21.00;45.40;;;;;;453051;263;1318;-51
2022/09/10 00:59:24;;;;;;;;;;;21.00;45.40;;;;;;452910;263;1415;-51
2022/09/10 01:01:24;;;;;;;;;;;21.00;45.50;;;;;;452874;263;2146;-51
2022/09/10 01:03:28;;;;;;;;;;;21.00;45.50;;;;;;453025;263;1255;-51
2022/09/10 01:05:28;;;;;;;;;;;21.00;45.50;;;;;;452879;263;1839;-52
2022/09/10 01:07:28;;;;;;;;;;;21.00;45.50;;;;;;452875;263;1386;-51
2022/09/10 01:09:30;;;;;;;;;;;21.00;45.50;;;;;;452666;263;1384;-51
2022/09/10 01:11:31;;;;;;;;;;;21.00;45.50;;;;;;452939;263;1371;-52
2022/09/10 01:13:32;;;;;;;;;;;21.00;45.50;;;;;;452784;263;1196;-51
2022/09/10 01:15:34;;;;;;;;;;;21.00;45.60;;;;;;453084;263;1237;-52
2022/09/10 01:17:35;;;;;;;;;;;20.90;45.60;;;;;;453086;263;1312;-51
2022/09/10 01:19:37;;;;;;;;;;;21.00;45.60;;;;;;452794;263;1308;-51
2022/09/10 01:21:38;;;;;;;;;;;21.00;45.70;;;;;;453086;262;2130;-52
2022/09/10 01:23:40;;;;;;;;;;;21.00;45.70;;;;;;453047;263;1311;-51
2022/09/10 01:25:40;;;;;;;;;;;21.00;45.70;;;;;;453010;263;1956;-51
2022/09/10 01:27:42;;;;;;;;;;;20.90;45.60;;;;;;453028;263;1216;-51
2022/09/10 01:29:43;;;;;;;;;;;21.00;45.70;;;;;;453093;263;1125;-51
2022/09/10 01:31:44;;;;;;;;;;;21.00;45.80;;;;;;452915;263;1236;-52
2022/09/10 01:33:46;;;;;;;;;;;21.00;45.80;;;;;;452978;263;1136;-52
2022/09/10 01:35:47;;;;;;;;;;;21.00;45.80;;;;;;453084;263;1284;-51
2022/09/10 01:37:48;;;;;;;;;;;21.00;45.80;;;;;;452771;262;1461;-51
2022/09/10 01:39:50;;;;;;;;;;;21.00;45.80;;;;;;452857;263;1103;-51
2022/09/10 01:41:51;;;;;;;;;;;21.00;45.80;;;;;;453036;263;2200;-51
2022/09/10 01:43:53;;;;;;;;;;;21.00;45.80;;;;;;452694;263;1191;-51
2022/09/10 01:45:54;;;;;;;;;;;21.00;45.80;;;;;;453081;263;1249;-51
2022/09/10 01:47:55;;;;;;;;;;;21.00;45.80;;;;;;453067;263;1403;-52
2022/09/10 01:49:57;;;;;;;;;;;21.00;45.80;;;;;;452878;263;1272;-51
2022/09/10 01:51:58;;;;;;;;;;;21.00;45.80;;;;;;452374;263;1295;-52
2022/09/10 01:53:59;;;;;;;;;;;21.00;45.90;;;;;;453044;263;1279;-51
2022/09/10 01:56:01;;;;;;;;;;;21.00;45.80;;;;;;453044;263;1304;-51
2022/09/10 01:58:02;;;;;;;;;;;21.00;45.90;;;;;;452649;263;2355;-51
2022/09/10 02:00:04;;;;;;;;;;;21.00;45.90;;;;;;452660;263;2174;-52
2022/09/10 02:02:05;;;;;;;;;;;21.00;45.90;;;;;;452767;263;1742;-52
2022/09/10 02:04:06;;;;;;;;;;;21.00;45.90;;;;;;453054;263;1347;-51
2022/09/10 02:06:08;;;;;;;;;;;21.00;45.90;;;;;;453061;263;1255;-51
2022/09/10 02:08:09;;;;;;;;;;;21.00;46.00;;;;;;453077;262;1274;-52
2022/09/10 02:10:10;;;;;;;;;;;21.00;46.00;;;;;;452807;263;1386;-51
2022/09/10 02:12:11;;;;;;;;;;;21.00;46.00;;;;;;452813;263;1299;-51
2022/09/10 02:14:13;;;;;;;;;;;21.00;46.00;;;;;;452799;263;1370;-51
2022/09/10 02:16:15;;;;;;;;;;;21.00;46.00;;;;;;452921;263;1338;-52
2022/09/10 02:18:16;;;;;;;;;;;21.00;46.00;;;;;;453062;263;1328;-51
2022/09/10 02:20:18;;;;;;;;;;;21.00;46.00;;;;;;453071;262;2166;-52
2022/09/10 02:22:19;;;;;;;;;;;21.00;46.00;;;;;;452958;263;2064;-52
2022/09/10 02:24:20;;;;;;;;;;;21.00;46.00;;;;;;452984;263;1420;-51
2022/09/10 02:26:21;;;;;;;;;;;21.00;46.00;;;;;;452681;263;1296;-52
2022/09/10 02:28:23;;;;;;;;;;;21.00;46.10;;;;;;452697;263;1225;-51
2022/09/10 02:30:24;;;;;;;;;;;21.00;46.00;;;;;;453095;263;1262;-52
2022/09/10 02:32:25;;;;;;;;;;;21.00;46.00;;;;;;452700;263;1278;-51
2022/09/10 02:34:27;;;;;;;;;;;20.90;46.00;;;;;;452999;263;1330;-52
2022/09/10 02:36:28;;;;;;;;;;;21.00;46.10;;;;;;452783;262;1433;-51
2022/09/10 02:38:29;;;;;;;;;;;21.00;46.10;;;;;;453060;263;1252;-52
2022/09/10 02:40:31;;;;;;;;;;;20.90;46.10;;;;;;452633;263;2205;-50
2022/09/10 02:42:32;;;;;;;;;;;20.90;46.20;;;;;;453031;263;1274;-52
2022/09/10 02:44:33;;;;;;;;;;;20.90;46.20;;;;;;452759;262;1555;-52
2022/09/10 02:46:35;;;;;;;;;;;20.90;46.20;;;;;;453075;263;1265;-51
2022/09/10 02:48:36;;;;;;;;;;;20.90;46.20;;;;;;452953;263;1284;-51
2022/09/10 02:50:37;;;;;;;;;;;21.00;46.20;;;;;;452629;263;1379;-51
2022/09/10 02:52:38;;;;;;;;;;;21.00;46.30;;;;;;453018;263;1398;-52
2022/09/10 02:54:40;;;;;;;;;;;21.00;46.20;;;;;;453072;263;1222;-51
2022/09/10 02:56:42;;;;;;;;;;;21.00;46.20;;;;;;452746;262;1212;-51
2022/09/10 02:58:42;;;;;;;;;;;20.90;46.30;;;;;;452759;263;2189;-52
2022/09/10 03:00:44;;;;;;;;;;;21.00;46.30;;;;;;452670;263;2198;-52
2022/09/10 03:02:45;;;;;;;;;;;20.90;46.30;;;;;;452944;263;1305;-52
2022/09/10 03:04:46;;;;;;;;;;;20.90;46.40;;;;;;452691;263;1295;-51
2022/09/10 03:06:48;;;;;;;;;;;20.90;46.30;;;;;;452710;263;1261;-51
2022/09/10 03:08:50;;;;;;;;;;;21.00;46.40;;;;;;453068;263;1262;-51
2022/09/10 03:10:51;;;;;;;;;;;20.90;46.40;;;;;;452697;263;1323;-52
2022/09/10 03:12:53;;;;;;;;;;;20.90;46.40;;;;;;452414;263;1317;-51
2022/09/10 03:14:56;;;;;;;;;;;21.00;46.40;;;;;;452669;263;1230;-51
2022/09/10 03:16:55;;;;;;;;;;;20.90;46.30;;;;;;452872;263;2354;-51
2022/09/10 03:18:56;;;;;;;;;;;20.90;46.40;;;;;;452957;263;1250;-52
2022/09/10 03:20:58;;;;;;;;;;;20.90;46.40;;;;;;452939;262;2217;-51
2022/09/10 03:22:59;;;;;;;;;;;20.90;46.40;;;;;;452671;263;1292;-51
2022/09/10 03:25:00;;;;;;;;;;;21.00;46.40;;;;;;452691;263;1333;-52
2022/09/10 03:27:02;;;;;;;;;;;21.00;46.40;;;;;;452762;263;1414;-51
2022/09/10 03:29:03;;;;;;;;;;;21.00;46.50;;;;;;452683;263;1654;-52
2022/09/10 03:31:04;;;;;;;;;;;21.00;46.50;;;;;;453056;263;1678;-51
2022/09/10 03:33:06;;;;;;;;;;;20.90;46.40;;;;;;453030;263;1327;-51
2022/09/10 03:35:08;;;;;;;;;;;21.00;46.50;;;;;;452672;263;1307;-51
2022/09/10 03:37:09;;;;;;;;;;;21.00;46.50;;;;;;453013;263;2496;-51
2022/09/10 03:39:10;;;;;;;;;;;20.90;46.50;;;;;;453040;263;1335;-51
2022/09/10 03:41:12;;;;;;;;;;;21.00;46.50;;;;;;452943;263;2188;-52
2022/09/10 03:43:14;;;;;;;;;;;21.00;46.50;;;;;;452719;263;1366;-51
2022/09/10 03:45:14;;;;;;;;;;;21.00;46.50;;;;;;452912;263;1424;-52
2022/09/10 03:47:16;;;;;;;;;;;21.00;46.60;;;;;;453135;262;1276;-51
2022/09/10 03:49:17;;;;;;;;;;;21.00;46.60;;;;;;453020;263;1583;-51
2022/09/10 03:51:19;;;;;;;;;;;21.00;46.60;;;;;;452676;263;1218;-51
2022/09/10 03:53:20;;;;;;;;;;;21.00;46.60;;;;;;452632;263;2252;-51
2022/09/10 03:55:21;;;;;;;;;;;21.00;46.60;;;;;;452717;263;1468;-52
2022/09/10 03:57:22;;;;;;;;;;;21.00;46.60;;;;;;452750;263;1662;-51
2022/09/10 03:59:24;;;;;;;;;;;21.00;46.60;;;;;;452740;263;1482;-52
2022/09/10 04:01:25;;;;;;;;;;;21.00;46.60;;;;;;452978;263;2185;-51
2022/09/10 04:03:26;;;;;;;;;;;21.00;46.70;;;;;;453072;262;1092;-52
2022/09/10 04:05:28;;;;;;;;;;;21.00;46.70;;;;;;452923;263;1276;-50
2022/09/10 04:07:29;;;;;;;;;;;21.00;46.70;;;;;;452833;263;1324;-51
2022/09/10 04:09:31;;;;;;;;;;;21.00;46.70;;;;;;453034;263;1365;-52
2022/09/10 04:11:33;;;;;;;;;;;20.90;46.70;;;;;;452930;263;1369;-52
2022/09/10 04:13:34;;;;;;;;;;;20.90;46.70;;;;;;453066;263;1363;-52
2022/09/10 04:15:36;;;;;;;;;;;21.00;46.80;;;;;;453054;263;1350;-51
2022/09/10 04:17:36;;;;;;;;;;;20.90;46.70;;;;;;452640;263;1335;-52
2022/09/10 04:19:39;;;;;;;;;;;21.00;46.80;;;;;;453053;263;1353;-52
2022/09/10 04:21:39;;;;;;;;;;;21.00;46.80;;;;;;452749;263;2177;-51
2022/09/10 04:23:40;;;;;;;;;;;21.00;46.80;;;;;;452483;263;1334;-51
2022/09/10 04:25:42;;;;;;;;;;;20.90;46.70;;;;;;452194;263;1248;-51
2022/09/10 04:27:43;;;;;;;;;;;21.00;46.80;;;;;;452807;263;1281;-51
2022/09/10 04:29:45;;;;;;;;;;;21.00;46.80;;;;;;453059;262;1288;-52
2022/09/10 04:31:46;;;;;;;;;;;21.00;46.80;;;;;;453061;263;1305;-52
2022/09/10 04:33:47;;;;;;;;;;;21.00;46.80;;;;;;452845;263;1352;-51
2022/09/10 04:35:48;;;;;;;;;;;21.00;46.80;;;;;;453070;262;1393;-51
2022/09/10 04:37:50;;;;;;;;;;;21.00;46.80;;;;;;453096;262;1350;-51
2022/09/10 04:39:51;;;;;;;;;;;21.00;46.80;;;;;;453005;263;1262;-51
2022/09/10 04:41:52;;;;;;;;;;;20.90;46.90;;;;;;453071;262;2165;-52
2022/09/10 04:43:54;;;;;;;;;;;20.90;46.80;;;;;;453065;263;1249;-52
2022/09/10 04:45:55;;;;;;;;;;;21.00;46.90;;;;;;452837;263;1210;-51
2022/09/10 04:47:56;;;;;;;;;;;21.00;46.90;;;;;;453040;263;1230;-51
2022/09/10 04:49:58;;;;;;;;;;;20.90;46.90;;;;;;453112;263;1095;-52
2022/09/10 04:51:59;;;;;;;;;;;20.90;46.90;;;;;;452685;263;1346;-51
2022/09/10 04:54:00;;;;;;;;;;;21.00;47.00;;;;;;452767;263;1260;-51
2022/09/10 04:56:02;;;;;;;;;;;20.90;46.90;;;;;;453094;263;1303;-51
2022/09/10 04:58:04;;;;;;;;;;;20.90;46.90;;;;;;452679;263;1281;-51
2022/09/10 05:00:06;;;;;;;;;;;21.00;46.90;;;;;;452987;263;2334;-51
2022/09/10 05:02:08;;;;;;;;;;;21.00;46.90;;;;;;453160;262;2209;-52
2022/09/10 05:04:08;;;;;;;;;;;21.00;47.00;;;;;;452660;263;2703;-52
2022/09/10 05:06:09;;;;;;;;;;;21.00;47.00;;;;;;452853;263;1252;-51
2022/09/10 05:08:12;;;;;;;;;;;21.00;46.90;;;;;;453063;263;1270;-51
2022/09/10 05:10:14;;;;;;;;;;;21.00;47.00;;;;;;452554;263;1455;-51
2022/09/10 05:12:14;;;;;;;;;;;21.00;47.00;;;;;;452557;263;2337;-52
2022/09/10 05:14:15;;;;;;;;;;;21.00;47.00;;;;;;453044;263;1341;-51
2022/09/10 05:16:16;;;;;;;;;;;21.00;47.00;;;;;;451808;263;1325;-51
2022/09/10 05:18:17;;;;;;;;;;;21.00;47.00;;;;;;452816;263;1255;-51
2022/09/10 05:20:19;;;;;;;;;;;21.00;47.00;;;;;;452704;263;1321;-51
2022/09/10 05:22:20;;;;;;;;;;;21.00;47.10;;;;;;453041;263;2209;-51
2022/09/10 05:24:21;;;;;;;;;;;21.00;47.00;;;;;;453039;263;1267;-51
2022/09/10 05:26:23;;;;;;;;;;;21.00;47.00;;;;;;452785;263;1309;-51
2022/09/10 05:28:24;;;;;;;;;;;21.00;47.10;;;;;;452854;263;1375;-52
2022/09/10 05:30:25;;;;;;;;;;;21.00;47.10;;;;;;453090;263;1310;-51
2022/09/10 05:32:27;;;;;;;;;;;21.00;47.10;;;;;;453092;263;1366;-51
2022/09/10 05:34:28;;;;;;;;;;;21.00;47.10;;;;;;452626;263;2318;-52
2022/09/10 05:36:30;;;;;;;;;;;21.00;47.00;;;;;;453084;263;1239;-51
2022/09/10 05:38:32;;;;;;;;;;;21.00;47.00;;;;;;453074;262;1958;-52
2022/09/10 05:40:32;;;;;;;;;;;21.00;47.10;;;;;;453041;263;1319;-52
2022/09/10 05:42:34;;;;;;;;;;;20.90;47.10;;;;;;453060;263;2221;-51
2022/09/10 05:44:35;;;;;;;;;;;21.00;47.10;;;;;;452677;263;1288;-51
2022/09/10 05:46:36;;;;;;;;;;;21.00;47.10;;;;;;452984;263;1375;-51
2022/09/10 05:48:39;;;;;;;;;;;21.00;47.10;;;;;;453067;263;1339;-51
2022/09/10 05:50:40;;;;;;;;;;;21.00;47.20;;;;;;453007;263;1313;-51
2022/09/10 05:52:41;;;;;;;;;;;21.00;47.20;;;;;;452659;263;1248;-52
2022/09/10 05:54:43;;;;;;;;;;;21.00;47.10;;;;;;452983;263;1321;-51
2022/09/10 05:56:44;;;;;;;;;;;20.90;47.20;;;;;;452651;263;2397;-51
2022/09/10 05:58:45;;;;;;;;;;;21.00;47.20;;;;;;452731;263;1296;-52
2022/09/10 06:00:46;;;;;;;;;;;20.90;47.20;;;;;;452865;263;1403;-52
2022/09/10 06:02:48;;;;;;;;;;;21.00;47.20;;;;;;452875;263;2157;-51
2022/09/10 06:04:49;;;;;;;;;;;21.00;47.20;;;;;;452956;263;1338;-51
2022/09/10 06:06:50;;;;;;;;;;;20.90;47.20;;;;;;453082;263;1337;-51
2022/09/10 06:08:52;;;;;;;;;;;21.00;47.30;;;;;;453092;263;1085;-52
2022/09/10 06:10:53;;;;;;;;;;;20.90;47.20;;;;;;452687;263;2434;-51
2022/09/10 06:12:54;;;;;;;;;;;21.00;47.20;;;;;;453112;263;1123;-51
2022/09/10 06:14:56;;;;;;;;;;;21.00;47.30;;;;;;452748;263;1194;-51
2022/09/10 06:16:57;;;;;;;;;;;21.00;47.30;;;;;;453092;263;1324;-52
2022/09/10 06:18:58;;;;;;;;;;;21.00;47.30;;;;;;452691;263;1088;-52
2022/09/10 06:21:00;;;;;;;;;;;21.00;47.30;;;;;;453080;263;1273;-51
2022/09/10 06:23:01;;;;;;;;;;;21.00;47.30;;;;;;452545;263;2224;-51
2022/09/10 06:25:02;;;;;;;;;;;21.00;47.30;;;;;;452706;263;1547;-52
2022/09/10 06:27:04;;;;;;;;;;;21.00;47.30;;;;;;453061;263;1337;-51
2022/09/10 06:29:05;;;;;;;;;;;20.90;47.30;;;;;;452629;263;1440;-51
2022/09/10 06:31:07;;;;;;;;;;;20.90;47.30;;;;;;452683;263;1247;-51
2022/09/10 06:33:12;;;;;;;;;;;21.00;47.40;;;;;;453066;263;1295;-52
2022/09/10 06:35:10;;;;;;;;;;;20.90;47.30;;;;;;452865;263;1885;-51
2022/09/10 06:37:12;;;;;;;;;;;21.00;47.40;;;;;;453040;263;1285;-51
2022/09/10 06:39:12;;;;;;;;;;;20.90;47.30;;;;;;452648;263;2633;-52
2022/09/10 06:41:14;;;;;;;;;;;20.90;47.40;;;;;;452655;263;1371;-51
2022/09/10 06:43:16;;;;;;;;;;;21.00;47.40;;;;;;452935;263;2216;-51
2022/09/10 06:45:16;;;;;;;;;;;20.90;47.40;;;;;;452744;262;1540;-52
2022/09/10 06:47:18;;;;;;;;;;;20.90;47.40;;;;;;453053;263;1298;-52
2022/09/10 06:49:20;;;;;;;;;;;20.90;47.40;;;;;;453023;263;1337;-51
2022/09/10 06:51:20;;;;;;;;;;;21.00;47.40;;;;;;452625;263;1416;-52
2022/09/10 06:53:22;;;;;;;;;;;20.90;47.40;;;;;;452998;263;1427;-52
2022/09/10 06:55:23;;;;;;;;;;;20.90;47.50;;;;;;452949;263;1884;-51
2022/09/10 06:57:24;;;;;;;;;;;20.90;47.40;;;;;;453007;263;1374;-52
2022/09/10 06:59:26;;;;;;;;;;;20.90;47.40;;;;;;452941;263;1298;-51
2022/09/10 07:01:27;;;;;;;;;;;20.90;47.40;;;;;;452999;263;1337;-51
2022/09/10 07:03:28;;;;;;;;;;;20.90;47.50;;;;;;453054;263;2181;-51
2022/09/10 07:05:30;;;;;;;;;;;20.90;47.50;;;;;;452859;263;1354;-52
2022/09/10 07:07:31;;;;;;;;;;;20.90;47.50;;;;;;452671;263;1488;-51
2022/09/10 07:09:32;;;;;;;;;;;20.90;47.50;;;;;;452903;263;1372;-52
2022/09/10 07:11:34;;;;;;;;;;;21.00;47.50;;;;;;452750;263;1298;-51
2022/09/10 07:13:35;;;;;;;;;;;20.90;47.50;;;;;;453070;263;1303;-52
2022/09/10 07:15:36;;;;;;;;;;;20.90;47.50;;;;;;452644;263;1367;-51
2022/09/10 07:17:38;;;;;;;;;;;20.90;47.50;;;;;;452586;263;1272;-52
2022/09/10 07:19:39;;;;;;;;;;;20.90;47.50;;;;;;453048;263;1220;-52
2022/09/10 07:21:40;;;;;;;;;;;20.90;47.50;;;;;;452769;262;1300;-51
2022/09/10 07:23:42;;;;;;;;;;;21.00;47.60;;;;;;452644;263;2198;-52
2022/09/10 07:25:43;;;;;;;;;;;21.00;47.60;;;;;;452588;263;2359;-52
2022/09/10 07:27:44;;;;;;;;;;;21.00;47.50;;;;;;452826;263;1321;-51
2022/09/10 07:29:46;;;;;;;;;;;21.00;47.50;;;;;;452661;263;1246;-51
2022/09/10 07:31:47;;;;;;;;;;;21.00;47.50;;;;;;452477;263;1365;-52
2022/09/10 07:33:49;;;;;;;;;;;20.90;47.60;;;;;;452796;263;1252;-52
2022/09/10 07:35:50;;;;;;;;;;;20.90;47.60;;;;;;453027;263;1274;-52
2022/09/10 07:37:51;;;;;;;;;;;20.90;47.60;;;;;;453078;263;1259;-52
2022/09/10 07:39:53;;;;;;;;;;;20.90;47.60;;;;;;452998;263;1267;-51
2022/09/10 07:41:54;;;;;;;;;;;20.90;47.60;;;;;;452799;263;1723;-51
2022/09/10 07:43:55;;;;;;;;;;;20.90;47.60;;;;;;452649;263;2229;-52
2022/09/10 07:45:56;;;;;;;;;;;20.90;47.60;;;;;;452743;263;1300;-51
2022/09/10 07:47:58;;;;;;;;;;;20.90;47.60;;;;;;452590;263;1295;-52
2022/09/10 07:49:59;;;;;;;;;;;21.00;47.70;;;;;;452888;263;1375;-52
2022/09/10 07:52:01;;;;;;;;;;;20.90;47.60;;;;;;452933;263;1431;-52
2022/09/10 07:54:02;;;;;;;;;;;20.90;47.60;;;;;;452924;263;1352;-51
2022/09/10 07:56:03;;;;;;;;;;;20.90;47.60;;;;;;452830;263;1358;-51
2022/09/10 07:58:05;;;;;;;;;;;20.90;47.70;;;;;;452675;263;1312;-52
2022/09/10 08:00:07;;;;;;;;;;;20.90;47.70;;;;;;452994;263;1356;-51
2022/09/10 08:02:08;;;;;;;;;;;20.90;47.60;;;;;;452667;263;2194;-52
2022/09/10 08:04:09;;;;;;;;;;;20.90;47.70;;;;;;452949;263;2173;-51
2022/09/10 08:06:10;;;;;;;;;;;20.90;47.60;;;;;;452999;263;1287;-51
2022/09/10 08:08:12;;;;;;;;;;;20.90;47.70;;;;;;452412;263;1290;-51
2022/09/10 08:10:13;;;;;;;;;;;20.90;47.70;;;;;;452686;262;2144;-51
2022/09/10 08:12:15;;;;;;;;;;;20.90;47.70;;;;;;453095;262;1306;-52
2022/09/10 08:14:15;;;;;;;;;;;20.90;47.70;;;;;;452613;263;2347;-51
2022/09/10 08:16:17;;;;;;;;;;;20.90;47.80;;;;;;452654;263;1333;-52
2022/09/10 08:18:18;;;;;;;;;;;20.90;47.80;;;;;;453003;263;2342;-51
2022/09/10 08:20:19;;;;;;;;;;;20.90;47.70;;;;;;452830;263;1355;-52
2022/09/10 08:22:20;;;;;;;;;;;20.90;47.80;;;;;;452812;263;2178;-51
2022/09/10 08:24:22;;;;;;;;;;;20.90;47.80;;;;;;452679;263;1312;-52
2022/09/10 08:26:23;;;;;;;;;;;20.90;47.70;;;;;;452932;263;1694;-52
2022/09/10 08:28:26;;;;;;;;;;;20.90;47.80;;;;;;453075;263;1401;-52
2022/09/10 08:30:26;;;;;;;;;;;20.90;47.80;;;;;;452550;263;2430;-52
2022/09/10 08:32:27;;;;;;;;;;;20.90;47.80;;;;;;453056;263;1305;-51
2022/09/10 08:34:29;;;;;;;;;;;20.90;47.80;;;;;;452694;263;1259;-52
2022/09/10 08:36:30;;;;;;;;;;;20.90;47.80;;;;;;452609;263;1393;-52
2022/09/10 08:38:31;;;;;;;;;;;20.90;47.80;;;;;;453084;263;1345;-51
2022/09/10 08:40:33;;;;;;;;;;;20.90;47.80;;;;;;452745;263;1452;-52
2022/09/10 08:42:34;;;;;;;;;;;20.90;47.80;;;;;;452681;263;2174;-52
2022/09/10 08:44:35;;;;;;;;;;;20.90;47.80;;;;;;452771;263;1315;-51
2022/09/10 08:46:37;;;;;;;;;;;20.90;47.80;;;;;;452880;263;1330;-51
2022/09/10 08:48:39;;;;;;;;;;;20.90;47.80;;;;;;452948;263;1398;-51
2022/09/10 08:50:40;;;;;;;;;;;20.90;47.80;;;;;;452989;263;2609;-51
2022/09/10 08:52:41;;;;;;;;;;;20.90;47.90;;;;;;452711;263;1267;-52
2022/09/10 08:54:42;;;;;;;;;;;20.90;47.80;;;;;;453114;262;1250;-52
2022/09/10 08:56:44;;;;;;;;;;;20.90;47.80;;;;;;452711;263;1308;-51
2022/09/10 08:58:45;;;;;;;;;;;20.90;47.90;;;;;;453091;262;1371;-51
2022/09/10 09:00:46;;;;;;;;;;;20.90;47.80;;;;;;453027;263;1340;-51
2022/09/10 09:02:48;;;;;;;;;;;20.90;47.90;;;;;;452677;263;2275;-51
2022/09/10 09:04:49;;;;;;;;;;;20.90;47.80;;;;;;452697;263;1368;-51
2022/09/10 09:06:50;;;;;;;;;;;20.90;47.80;;;;;;452683;263;1314;-51
2022/09/10 09:08:52;;;;;;;;;;;20.90;47.90;;;;;;453118;262;1362;-51
2022/09/10 09:10:53;;;;;;;;;;;20.90;47.80;;;;;;453016;263;2302;-51
2022/09/10 09:12:54;;;;;;;;;;;20.90;47.90;;;;;;452707;263;1250;-51
2022/09/10 09:14:56;;;;;;;;;;;20.90;47.80;;;;;;453019;263;1101;-52
2022/09/10 09:16:58;;;;;;;;;;;20.90;47.90;;;;;;452932;263;1125;-51
2022/09/10 09:18:59;;;;;;;;;;;20.90;47.90;;;;;;453079;263;2087;-51
2022/09/10 09:21:00;;;;;;;;;;;20.90;47.90;;;;;;452696;263;1273;-51
2022/09/10 09:23:02;;;;;;;;;;;20.90;48.00;;;;;;453112;263;2181;-52
2022/09/10 09:25:03;;;;;;;;;;;20.90;48.00;;;;;;453052;263;2231;-52
2022/09/10 09:27:08;;;;;;;;;;;20.90;47.90;;;;;;452703;263;1265;-51
2022/09/10 09:29:06;;;;;;;;;;;20.90;47.90;;;;;;452671;263;2359;-52
2022/09/10 09:31:07;;;;;;;;;;;20.90;48.00;;;;;;452998;263;1304;-52
2022/09/10 09:33:08;;;;;;;;;;;20.90;48.00;;;;;;452691;263;1275;-51
2022/09/10 09:35:10;;;;;;;;;;;20.90;48.00;;;;;;452660;263;1292;-51
2022/09/10 09:37:11;;;;;;;;;;;20.90;47.90;;;;;;452790;263;1262;-52
2022/09/10 09:39:12;;;;;;;;;;;20.90;47.90;;;;;;452587;263;1302;-51
2022/09/10 09:41:14;;;;;;;;;;;20.90;47.90;;;;;;452622;263;1507;-51
2022/09/10 09:43:15;;;;;;;;;;;20.90;47.90;;;;;;452651;263;2213;-51
2022/09/10 09:45:16;;;;;;;;;;;20.90;47.90;;;;;;453114;262;1659;-51
2022/09/10 09:47:18;;;;;;;;;;;20.90;48.00;;;;;;452881;263;1302;-52
2022/09/10 09:49:19;;;;;;;;;;;20.90;48.00;;;;;;453054;263;1277;-51
2022/09/10 09:51:20;;;;;;;;;;;20.90;48.00;;;;;;452752;263;1362;-52
2022/09/10 09:53:22;;;;;;;;;;;20.90;48.00;;;;;;452682;263;1338;-51
2022/09/10 09:55:23;;;;;;;;;;;20.90;48.00;;;;;;453011;263;1258;-52
2022/09/10 09:57:24;;;;;;;;;;;20.90;48.00;;;;;;453053;263;1347;-52
2022/09/10 09:59:26;;;;;;;;;;;20.90;48.00;;;;;;453009;263;1275;-51
2022/09/10 10:01:27;;;;;;;;;;;20.90;48.00;;;;;;452887;263;1470;-51
2022/09/10 10:03:29;;;;;;;;;;;20.90;48.00;;;;;;452721;262;2205;-52
2022/09/10 10:05:30;;;;;;;;;;;20.90;48.10;;;;;;452647;263;2356;-51
2022/09/10 10:07:31;;;;;;;;;;;20.90;48.00;;;;;;452662;263;1275;-50
2022/09/10 10:09:32;;;;;;;;;;;20.90;48.00;;;;;;452674;263;1371;-51
2022/09/10 10:11:34;;;;;;;;;;;20.90;48.00;;;;;;452884;263;1537;-51
2022/09/10 10:13:36;;;;;;;;;;;20.90;48.00;;;;;;453067;263;1242;-51
2022/09/10 10:15:37;;;;;;;;;;;21.00;48.00;;;;;;453113;262;1294;-51
2022/09/10 10:17:38;;;;;;;;;;;20.90;48.00;;;;;;452819;263;1309;-51
2022/09/10 10:19:40;;;;;;;;;;;20.90;48.00;;;;;;452695;263;1318;-52
2022/09/10 10:21:42;;;;;;;;;;;20.90;48.00;;;;;;452864;263;1466;-52
2022/09/10 10:23:42;;;;;;;;;;;20.90;48.10;;;;;;452553;263;2213;-51
2022/09/10 10:25:47;;;;;;;;;;;20.90;48.10;;;;;;453020;262;1280;-51
2022/09/10 10:27:50;;;;;;;;;;;20.90;48.10;;;;;;452465;263;2557;-51
2022/09/10 10:29:46;;;;;;;;;;;20.90;48.10;;;;;;452566;263;1472;-52
2022/09/10 10:31:48;;;;;;;;;;;20.90;48.10;;;;;;453082;263;1231;-52
2022/09/10 10:33:49;;;;;;;;;;;20.90;48.10;;;;;;452723;263;1121;-52
2022/09/10 10:35:51;;;;;;;;;;;20.90;48.10;;;;;;453058;263;1150;-51
2022/09/10 10:37:55;;;;;;;;;;;20.90;48.10;;;;;;453112;263;1262;-52
2022/09/10 10:39:54;;;;;;;;;;;20.90;48.10;;;;;;452901;263;1879;-51
2022/09/10 10:41:55;;;;;;;;;;;20.90;48.10;;;;;;453073;263;1286;-52
2022/09/10 10:43:56;;;;;;;;;;;20.90;48.10;;;;;;453172;262;2174;-51
2022/09/10 10:45:58;;;;;;;;;;;20.90;48.10;;;;;;453088;263;1273;-51
2022/09/10 10:48:00;;;;;;;;;;;20.90;48.10;;;;;;452810;263;1325;-51
2022/09/10 10:50:02;;;;;;;;;;;20.90;48.10;;;;;;453072;263;1389;-52
2022/09/10 10:52:02;;;;;;;;;;;20.90;48.10;;;;;;453025;263;1884;-52
2022/09/10 10:54:03;;;;;;;;;;;20.90;48.10;;;;;;452760;263;1263;-52
2022/09/10 10:56:05;;;;;;;;;;;20.90;48.10;;;;;;453080;262;1307;-52
2022/09/10 10:58:06;;;;;;;;;;;20.90;48.10;;;;;;452918;263;1310;-52
2022/09/10 11:00:08;;;;;;;;;;;20.90;48.10;;;;;;452632;263;1359;-52
2022/09/10 11:02:09;;;;;;;;;;;20.90;48.10;;;;;;452729;263;1585;-52
2022/09/10 11:04:10;;;;;;;;;;;20.90;48.10;;;;;;452761;263;2205;-51
2022/09/10 11:06:11;;;;;;;;;;;20.90;48.10;;;;;;453070;263;1249;-52
2022/09/10 11:08:13;;;;;;;;;;;20.90;48.20;;;;;;453050;263;1267;-52
2022/09/10 11:10:14;;;;;;;;;;;20.90;48.20;;;;;;452625;263;1443;-51
2022/09/10 11:12:15;;;;;;;;;;;20.90;48.10;;;;;;452870;263;1361;-51
2022/09/10 11:14:16;;;;;;;;;;;20.90;48.10;;;;;;452711;263;1243;-52
2022/09/10 11:16:19;;;;;;;;;;;20.90;48.20;;;;;;452931;263;1252;-52
2022/09/10 11:18:19;;;;;;;;;;;20.90;48.20;;;;;;452970;263;2235;-51
2022/09/10 11:20:22;;;;;;;;;;;20.90;48.20;;;;;;452933;262;1279;-52
2022/09/10 11:22:22;;;;;;;;;;;20.90;48.20;;;;;;452593;263;2319;-51
2022/09/10 11:24:23;;;;;;;;;;;20.90;48.20;;;;;;452645;263;2209;-50
2022/09/10 11:26:25;;;;;;;;;;;20.90;48.20;;;;;;452978;263;1266;-51
2022/09/10 11:28:26;;;;;;;;;;;20.90;48.20;;;;;;453076;263;1162;-52
2022/09/10 11:30:28;;;;;;;;;;;20.90;48.20;;;;;;453097;263;1200;-51
2022/09/10 11:32:29;;;;;;;;;;;20.90;48.20;;;;;;452981;263;1181;-52
2022/09/10 11:34:30;;;;;;;;;;;20.90;48.20;;;;;;452843;263;1099;-51
2022/09/10 11:36:32;;;;;;;;;;;20.90;48.20;;;;;;453061;263;1284;-51
2022/09/10 11:38:33;;;;;;;;;;;20.90;48.30;;;;;;452998;263;1107;-51
2022/09/10 11:40:34;;;;;;;;;;;20.90;48.30;;;;;;452667;263;1368;-51
2022/09/10 11:42:36;;;;;;;;;;;20.90;48.20;;;;;;453071;263;1300;-52
2022/09/10 11:44:37;;;;;;;;;;;20.90;48.20;;;;;;453063;263;2166;-51
2022/09/10 11:46:38;;;;;;;;;;;20.90;48.30;;;;;;453054;263;1378;-51
2022/09/10 11:48:40;;;;;;;;;;;20.90;48.30;;;;;;452867;263;1320;-51
2022/09/10 11:50:41;;;;;;;;;;;20.90;48.30;;;;;;452789;263;1328;-52
2022/09/10 11:52:42;;;;;;;;;;;20.90;48.30;;;;;;452897;262;1193;-51
2022/09/10 11:54:45;;;;;;;;;;;20.90;48.30;;;;;;453079;263;1268;-51
2022/09/10 11:56:45;;;;;;;;;;;20.90;48.30;;;;;;452480;263;1780;-51